createdAt,value
2022-07-30T00:01:52.837Z,99.90
2022-07-30T00:06:59.963Z,99.90
2022-07-30T00:12:01.846Z,99.90
2022-07-30T00:17:05.218Z,99.90
2022-07-30T00:22:07.490Z,99.90
2022-07-30T00:27:09.261Z,99.90
2022-07-30T00:32:10.960Z,99.90
2022-07-30T00:37:12.777Z,99.90
2022-07-30T00:42:14.669Z,99.90
2022-07-30T00:47:16.412Z,99.90
2022-07-30T00:52:18.198Z,99.90
2022-07-30T00:57:19.882Z,99.90
2022-07-30T01:02:22.082Z,99.90
2022-07-30T01:07:27.098Z,99.90
2022-07-30T01:12:29.730Z,99.90
2022-07-30T01:17:31.662Z,99.90
2022-07-30T01:22:42.506Z,99.90
2022-07-30T01:28:06.288Z,99.90
2022-07-30T01:33:11.779Z,99.90
2022-07-30T01:38:16.594Z,99.90
2022-07-30T01:53:54.522Z,99.90
2022-07-30T01:58:58.141Z,99.90
2022-07-30T02:04:01.909Z,99.90
2022-07-30T02:09:10.722Z,99.90
2022-07-30T02:14:23.742Z,99.90
2022-07-30T02:19:34.290Z,99.90
2022-07-30T02:24:38.635Z,99.90
2022-07-30T02:29:42.635Z,99.90
2022-07-30T02:34:47.295Z,99.90
2022-07-30T02:39:50.802Z,99.90
2022-07-30T02:44:54.688Z,99.90
2022-07-30T02:49:58.500Z,99.90
2022-07-30T02:55:02.340Z,99.90
2022-07-30T03:00:05.721Z,99.90
2022-07-30T03:05:08.789Z,99.90
2022-07-30T03:10:12.158Z,99.90
2022-07-30T03:15:14.381Z,99.90
2022-07-30T03:20:19.905Z,99.90
2022-07-30T03:25:34.505Z,99.90
2022-07-30T03:30:48.208Z,99.90
2022-07-30T03:35:52.054Z,99.90
2022-07-30T03:40:55.611Z,99.90
2022-07-30T03:45:58.566Z,99.90
2022-07-30T03:51:13.974Z,99.90
2022-07-30T03:56:15.926Z,99.90
2022-07-30T04:01:17.973Z,99.90
2022-07-30T04:06:20.113Z,99.90
2022-07-30T04:16:47.030Z,99.90
2022-07-30T04:21:54.321Z,99.90
2022-07-30T04:47:05.818Z,99.90
2022-07-30T04:52:09.261Z,99.90
2022-07-30T04:57:12.906Z,99.90
2022-07-30T05:02:16.192Z,99.90
2022-07-30T05:07:22.367Z,99.90
2022-07-30T05:12:34.337Z,99.90
2022-07-30T05:17:37.159Z,99.90
2022-07-30T05:27:44.498Z,99.90
2022-07-30T06:23:12.190Z,99.90
2022-07-30T06:33:39.916Z,99.90
2022-07-30T06:43:44.298Z,99.90
2022-07-30T06:48:46.140Z,99.90
2022-07-30T06:53:48.333Z,99.90
2022-07-30T06:58:50.074Z,99.90
2022-07-30T07:03:51.777Z,99.90
2022-07-30T07:08:53.480Z,99.90
2022-07-30T07:14:01.403Z,99.90
2022-07-30T07:19:06.007Z,99.90
2022-07-30T07:24:08.969Z,99.90
2022-07-30T07:29:10.693Z,99.90
2022-07-30T07:34:16.982Z,99.90
2022-07-30T07:39:18.953Z,99.90
2022-07-30T07:44:20.678Z,99.90
2022-07-30T07:49:22.505Z,99.90
2022-07-30T07:54:24.280Z,99.90
2022-07-30T07:59:36.276Z,99.90
2022-07-30T08:04:42.255Z,99.90
2022-07-30T08:09:45.010Z,99.90
2022-07-30T08:14:46.905Z,99.90
2022-07-30T08:19:48.627Z,99.90
2022-07-30T08:24:50.397Z,99.90
2022-07-30T08:29:56.324Z,99.90
2022-07-30T08:35:00.326Z,99.90
2022-07-30T08:40:03.601Z,99.90
2022-07-30T08:45:06.807Z,99.90
2022-07-30T08:50:09.066Z,99.90
2022-07-30T08:55:11.014Z,99.90
2022-07-30T09:05:16.077Z,99.90
2022-07-30T09:10:18.851Z,99.90
2022-07-30T09:15:36.597Z,99.90
2022-07-30T09:20:38.369Z,99.90
2022-07-30T09:25:44.604Z,99.90
2022-07-30T09:30:53.686Z,99.90
2022-07-30T09:35:56.479Z,99.90
2022-07-30T09:46:15.063Z,99.90
2022-07-30T09:51:18.394Z,99.90
2022-07-30T09:56:26.430Z,99.90
2022-07-30T10:01:49.756Z,99.40
2022-07-30T10:06:50.659Z,99.20
2022-07-30T10:11:56.075Z,99.20
2022-07-30T10:16:58.983Z,99.40
2022-07-30T10:22:12.089Z,98.50
2022-07-30T10:27:14.308Z,98.20
2022-07-30T10:37:20.394Z,98.30
2022-07-30T10:42:33.074Z,99.90
2022-07-30T10:47:40.253Z,97.10
2022-07-30T10:52:50.571Z,97.50
2022-07-30T10:58:08.127Z,98.60
2022-07-30T11:03:40.073Z,98.50
2022-07-30T11:08:48.474Z,96.80
2022-07-30T11:14:01.163Z,94.90
2022-07-30T11:24:47.257Z,93.80
2022-07-30T11:29:51.644Z,94.20
2022-07-30T11:35:23.230Z,94.20
2022-07-30T11:40:36.455Z,95.20
2022-07-30T11:45:38.421Z,93.60
2022-07-30T11:50:40.804Z,93.90
2022-07-30T11:55:45.395Z,96.90
2022-07-30T12:00:48.049Z,94.90
2022-07-30T12:05:52.540Z,93.80
2022-07-30T12:10:58.445Z,94.60
2022-07-30T12:16:00.982Z,95.90
2022-07-30T12:21:14.555Z,96.90
2022-07-30T12:26:26.812Z,94.90
2022-07-30T12:31:29.464Z,94.70
2022-07-30T12:41:59.081Z,95.90
2022-07-30T12:47:01.453Z,93.30
2022-07-30T12:52:04.238Z,96.10
2022-07-30T12:57:06.716Z,96.60
2022-07-30T13:02:08.958Z,94.90
2022-07-30T13:07:26.655Z,95.30
2022-07-30T13:12:29.046Z,95.30
2022-07-30T13:27:41.446Z,94.60
2022-07-30T13:32:43.184Z,95.50
2022-07-30T13:37:44.853Z,94.20
2022-07-30T13:42:46.580Z,94.50
2022-07-30T13:47:48.464Z,94.50
2022-07-30T13:53:02.589Z,92.60
2022-07-30T13:58:06.782Z,92.10
2022-07-30T14:03:11.077Z,92.80
2022-07-30T14:08:12.956Z,93.50
2022-07-30T14:13:20.768Z,93.60
2022-07-30T14:18:23.218Z,92.00
2022-07-30T14:23:24.954Z,92.90
2022-07-30T14:28:26.760Z,93.50
2022-07-30T14:33:28.562Z,93.50
2022-07-30T14:38:30.842Z,94.50
2022-07-30T14:43:32.665Z,93.70
2022-07-30T14:48:34.385Z,95.30
2022-07-30T14:53:36.290Z,94.30
2022-07-30T14:58:38.023Z,94.80
2022-07-30T15:03:40.032Z,94.70
2022-07-30T15:08:42.595Z,94.20
2022-07-30T15:13:50.235Z,92.60
2022-07-30T15:18:52.402Z,95.00
2022-07-30T15:23:54.119Z,92.90
2022-07-30T15:28:55.846Z,93.60
2022-07-30T15:33:57.744Z,94.50
2022-07-30T15:38:59.705Z,94.10
2022-07-30T15:44:01.428Z,94.60
2022-07-30T15:49:03.608Z,93.70
2022-07-30T15:54:06.847Z,92.90
2022-07-30T15:59:09.608Z,94.30
2022-07-30T16:04:22.453Z,93.80
2022-07-30T16:09:34.066Z,95.20
2022-07-30T16:14:36.004Z,93.00
2022-07-30T16:19:37.990Z,93.60
2022-07-30T16:24:39.654Z,93.60
2022-07-30T16:29:41.350Z,93.60
2022-07-30T16:34:43.716Z,94.70
2022-07-30T16:44:47.648Z,94.30
2022-07-30T16:49:54.940Z,93.90
2022-07-30T16:54:56.639Z,94.20
2022-07-30T16:59:58.484Z,94.40
2022-07-30T17:05:00.407Z,95.60
2022-07-30T17:10:02.150Z,93.60
2022-07-30T17:15:06.488Z,94.80
2022-07-30T17:20:10.030Z,94.90
2022-07-30T17:25:11.887Z,95.50
2022-07-30T17:35:15.969Z,93.40
2022-07-30T17:40:29.370Z,97.00
2022-07-30T17:45:34.621Z,96.10
2022-07-30T17:50:36.766Z,96.30
2022-07-30T17:55:38.582Z,94.40
2022-07-30T18:00:40.394Z,95.30
2022-07-30T18:15:46.737Z,97.40
2022-07-30T18:20:48.689Z,98.00
2022-07-30T18:25:51.628Z,97.80
2022-07-30T18:30:55.138Z,97.70
2022-07-30T18:35:56.934Z,96.40
2022-07-30T18:40:58.857Z,98.80
2022-07-30T18:46:02.693Z,98.80
2022-07-30T18:51:09.636Z,97.60
2022-07-30T18:56:13.805Z,97.50
2022-07-30T19:01:18.442Z,97.60
2022-07-30T19:06:21.501Z,98.10
2022-07-30T19:11:23.785Z,98.20
2022-07-30T19:16:25.632Z,98.40
2022-07-30T19:21:27.413Z,98.50
2022-07-30T19:26:29.280Z,99.60
2022-07-30T19:31:31.054Z,99.90
2022-07-30T19:36:33.593Z,99.40
2022-07-30T19:41:40.635Z,99.90
2022-07-30T19:46:43.048Z,99.90
2022-07-30T19:52:09.976Z,99.90
2022-07-30T19:57:07.483Z,99.90
2022-07-30T20:02:23.064Z,99.90
2022-07-30T20:07:27.469Z,99.90
2022-07-30T20:12:29.518Z,99.90
2022-07-30T20:17:32.646Z,99.90
2022-07-30T20:22:37.027Z,99.90
2022-07-30T20:27:40.417Z,99.90
2022-07-30T20:32:46.423Z,99.90
2022-07-30T20:37:54.819Z,99.90
2022-07-30T20:42:57.557Z,99.90
2022-07-30T20:48:02.581Z,99.90
2022-07-30T20:53:04.330Z,99.90
2022-07-30T20:58:16.274Z,99.90
2022-07-30T21:03:21.466Z,99.90
2022-07-30T21:08:25.605Z,99.90
2022-07-30T21:13:28.014Z,99.90
2022-07-30T21:18:34.103Z,99.90
2022-07-30T21:23:36.201Z,99.90
2022-07-30T21:33:42.299Z,99.90
2022-07-30T21:38:44.406Z,99.90
2022-07-30T21:43:46.374Z,99.90
2022-07-30T21:48:56.486Z,99.90
2022-07-30T21:54:00.172Z,99.90
2022-07-30T21:59:02.655Z,99.90
2022-07-30T22:04:07.827Z,99.90
2022-07-30T22:09:19.479Z,99.90
2022-07-30T22:14:35.288Z,99.90
2022-07-30T22:19:37.317Z,99.90
2022-07-30T22:29:42.589Z,99.90
2022-07-30T22:34:44.834Z,99.90
2022-07-30T22:39:59.791Z,99.90
2022-07-30T22:45:04.593Z,99.90
2022-07-30T23:00:14.936Z,99.90
2022-07-30T23:35:47.925Z,99.90
2022-07-30T23:50:56.651Z,99.90
